createdAt,value
2023-05-06T00:02:22.590Z,64.58
2023-05-06T00:04:51.351Z,64.59
2023-05-06T00:07:19.939Z,64.82
2023-05-06T00:09:47.621Z,65.09
2023-05-06T00:12:15.996Z,65.11
2023-05-06T00:14:44.351Z,65.35
2023-05-06T00:17:12.738Z,65.07
2023-05-06T00:19:41.718Z,65.30
2023-05-06T00:22:10.076Z,65.62
2023-05-06T00:24:37.697Z,65.49
2023-05-06T00:27:06.168Z,65.41
2023-05-06T00:29:33.744Z,65.22
2023-05-06T00:32:02.368Z,65.54
2023-05-06T00:34:30.804Z,65.46
2023-05-06T00:36:59.161Z,65.90
2023-05-06T00:39:27.469Z,65.58
2023-05-06T00:42:01.682Z,65.51
2023-05-06T00:44:31.742Z,65.36
2023-05-06T00:47:01.509Z,65.57
2023-05-06T00:49:30.574Z,65.48
2023-05-06T00:51:59.559Z,65.54
2023-05-06T00:54:29.199Z,65.78
2023-05-06T00:56:57.664Z,65.62
2023-05-06T00:59:26.138Z,65.48
2023-05-06T01:01:54.625Z,65.43
2023-05-06T01:04:23.388Z,65.41
2023-05-06T01:07:01.185Z,65.30
2023-05-06T01:09:38.278Z,65.21
2023-05-06T01:12:09.543Z,64.83
2023-05-06T01:14:41.471Z,65.02
2023-05-06T01:17:11.607Z,64.69
2023-05-06T01:19:45.960Z,64.50
2023-05-06T01:22:16.343Z,64.25
2023-05-06T01:24:46.013Z,63.85
2023-05-06T01:27:16.115Z,63.89
2023-05-06T01:29:46.154Z,63.48
2023-05-06T01:32:33.838Z,63.35
2023-05-06T01:35:10.812Z,63.21
2023-05-06T01:37:45.074Z,63.27
2023-05-06T01:40:13.308Z,63.28
2023-05-06T01:42:41.712Z,62.90
2023-05-06T01:45:10.757Z,62.83
2023-05-06T01:47:40.027Z,62.82
2023-05-06T01:50:09.745Z,62.80
2023-05-06T01:52:38.114Z,62.46
2023-05-06T01:55:08.818Z,62.59
2023-05-06T01:57:37.333Z,62.51
2023-05-06T02:00:09.072Z,62.48
2023-05-06T02:02:40.926Z,62.51
2023-05-06T02:05:10.232Z,62.39
2023-05-06T02:07:39.844Z,62.38
2023-05-06T02:10:08.319Z,62.51
2023-05-06T02:12:38.632Z,62.27
2023-05-06T02:15:09.746Z,62.44
2023-05-06T02:17:39.087Z,62.01
2023-05-06T02:20:09.108Z,62.31
2023-05-06T02:22:37.508Z,62.20
2023-05-06T02:25:08.778Z,62.28
2023-05-06T02:27:37.354Z,62.23
2023-05-06T02:30:08.000Z,62.40
2023-05-06T02:32:36.434Z,62.42
2023-05-06T02:35:07.191Z,62.42
2023-05-06T02:37:35.622Z,62.39
2023-05-06T02:40:05.856Z,62.72
2023-05-06T02:42:35.390Z,62.61
2023-05-06T02:45:05.128Z,62.63
2023-05-06T02:47:34.089Z,62.66
2023-05-06T02:50:01.668Z,62.45
2023-05-06T02:52:30.161Z,62.68
2023-05-06T02:54:58.621Z,62.53
2023-05-06T02:57:27.063Z,62.83
2023-05-06T02:59:55.585Z,62.71
2023-05-06T03:02:23.206Z,62.79
2023-05-06T03:04:52.062Z,62.94
2023-05-06T03:07:20.618Z,63.13
2023-05-06T03:09:49.447Z,63.05
2023-05-06T03:12:17.073Z,63.22
2023-05-06T03:14:45.591Z,63.39
2023-05-06T03:17:14.060Z,63.09
2023-05-06T03:19:41.852Z,63.55
2023-05-06T03:22:11.018Z,63.42
2023-05-06T03:24:42.357Z,63.34
2023-05-06T03:27:10.761Z,63.24
2023-05-06T03:29:39.941Z,63.27
2023-05-06T03:32:09.535Z,63.44
2023-05-06T03:34:42.424Z,63.39
2023-05-06T03:37:12.519Z,63.23
2023-05-06T03:39:41.827Z,63.51
2023-05-06T03:42:11.957Z,63.44
2023-05-06T03:44:40.860Z,63.54
2023-05-06T03:47:10.255Z,63.57
2023-05-06T03:49:40.254Z,63.39
2023-05-06T03:52:09.851Z,63.67
2023-05-06T03:54:39.029Z,63.35
2023-05-06T03:57:08.700Z,63.37
2023-05-06T03:59:37.691Z,63.34
2023-05-06T04:02:06.809Z,63.54
2023-05-06T04:04:37.420Z,63.38
2023-05-06T04:07:06.036Z,63.27
2023-05-06T04:09:34.488Z,63.33
2023-05-06T04:12:05.910Z,63.20
2023-05-06T04:14:34.590Z,63.37
2023-05-06T04:17:02.990Z,63.14
2023-05-06T04:19:32.911Z,63.07
2023-05-06T04:22:01.724Z,63.22
2023-05-06T04:24:30.603Z,63.31
2023-05-06T04:26:58.905Z,63.01
2023-05-06T04:29:27.728Z,63.16
2023-05-06T04:32:00.071Z,62.98
2023-05-06T04:34:28.653Z,62.75
2023-05-06T04:36:59.895Z,63.52
2023-05-06T04:39:38.705Z,63.40
2023-05-06T04:42:08.206Z,63.14
2023-05-06T04:44:42.884Z,63.15
2023-05-06T04:47:11.464Z,63.08
2023-05-06T04:49:40.311Z,62.73
2023-05-06T04:52:10.086Z,62.48
2023-05-06T04:54:39.001Z,62.68
2023-05-06T04:57:08.740Z,62.47
2023-05-06T04:59:37.511Z,62.33
2023-05-06T05:02:05.907Z,61.88
2023-05-06T05:04:33.539Z,61.62
2023-05-06T05:07:02.326Z,61.69
2023-05-06T05:09:32.210Z,61.30
2023-05-06T05:12:01.728Z,61.51
2023-05-06T05:14:31.195Z,60.95
2023-05-06T05:17:00.328Z,60.76
2023-05-06T05:19:27.865Z,60.68
2023-05-06T05:21:57.118Z,60.55
2023-05-06T05:24:26.570Z,60.22
2023-05-06T05:26:54.036Z,60.33
2023-05-06T05:29:23.088Z,60.19
2023-05-06T05:31:52.117Z,59.76
2023-05-06T05:34:20.139Z,60.07
2023-05-06T05:36:50.560Z,59.66
2023-05-06T05:39:20.403Z,59.31
2023-05-06T05:41:49.167Z,58.88
2023-05-06T05:44:16.734Z,58.81
2023-05-06T05:46:45.112Z,58.59
2023-05-06T05:49:15.788Z,58.17
2023-05-06T05:51:44.598Z,57.63
2023-05-06T05:54:14.187Z,57.79
2023-05-06T05:56:42.709Z,57.49
2023-05-06T05:59:10.255Z,57.86
2023-05-06T06:01:39.158Z,57.01
2023-05-06T06:04:08.087Z,57.12
2023-05-06T06:06:36.351Z,56.80
2023-05-06T06:09:04.048Z,56.30
2023-05-06T06:11:32.536Z,56.27
2023-05-06T06:14:01.296Z,56.20
2023-05-06T06:16:29.974Z,56.26
2023-05-06T06:18:58.530Z,55.35
2023-05-06T06:21:27.002Z,55.09
2023-05-06T06:23:56.273Z,55.15
2023-05-06T06:26:23.815Z,55.22
2023-05-06T06:28:52.166Z,54.93
2023-05-06T06:31:19.666Z,54.59
2023-05-06T06:33:48.046Z,53.74
2023-05-06T06:36:15.453Z,53.91
2023-05-06T06:38:44.392Z,53.68
2023-05-06T06:41:14.012Z,53.31
2023-05-06T06:43:42.443Z,53.00
2023-05-06T06:46:20.668Z,53.05
2023-05-06T06:48:49.536Z,52.21
2023-05-06T06:51:17.926Z,51.62
2023-05-06T06:53:48.321Z,51.56
2023-05-06T06:56:17.332Z,51.14
2023-05-06T06:58:45.782Z,51.06
2023-05-06T07:01:14.246Z,49.89
2023-05-06T07:03:42.688Z,49.64
2023-05-06T07:06:11.214Z,49.83
2023-05-06T07:08:39.654Z,49.62
2023-05-06T07:11:07.981Z,49.88
2023-05-06T07:13:36.352Z,49.39
2023-05-06T07:16:05.623Z,49.25
2023-05-06T07:18:34.146Z,48.63
2023-05-06T07:21:02.541Z,48.27
2023-05-06T07:23:32.175Z,47.86
2023-05-06T07:26:00.643Z,47.98
2023-05-06T07:28:29.010Z,47.80
2023-05-06T07:30:57.389Z,47.37
2023-05-06T07:33:25.680Z,46.85
2023-05-06T07:35:53.433Z,46.19
2023-05-06T07:38:22.500Z,45.62
2023-05-06T07:40:51.593Z,45.39
2023-05-06T07:43:21.336Z,44.88
2023-05-06T07:45:49.768Z,45.29
2023-05-06T07:48:19.974Z,45.22
2023-05-06T07:50:48.713Z,43.99
2023-05-06T07:53:17.117Z,42.81
2023-05-06T07:55:45.531Z,43.02
2023-05-06T07:58:13.904Z,42.44
2023-05-06T08:00:42.516Z,42.12
2023-05-06T08:03:11.415Z,42.01
2023-05-06T08:05:40.008Z,41.77
2023-05-06T08:08:08.310Z,42.12
2023-05-06T08:10:36.782Z,41.89
2023-05-06T08:13:05.216Z,41.00
2023-05-06T08:15:33.639Z,41.25
2023-05-06T08:18:13.674Z,41.04
2023-05-06T08:20:50.543Z,41.14
2023-05-06T08:23:18.952Z,41.13
2023-05-06T08:25:47.452Z,41.45
2023-05-06T08:28:16.034Z,40.86
2023-05-06T08:30:46.996Z,40.35
2023-05-06T08:33:15.278Z,40.28
2023-05-06T08:35:44.222Z,40.41
2023-05-06T08:38:12.589Z,40.58
2023-05-06T08:40:43.175Z,40.52
2023-05-06T08:43:14.038Z,40.67
2023-05-06T08:45:42.805Z,40.70
2023-05-06T08:48:11.177Z,40.45
2023-05-06T08:50:42.242Z,40.53
2023-05-06T08:53:11.982Z,40.41
2023-05-06T08:55:41.586Z,39.79
2023-05-06T08:58:11.713Z,39.20
2023-05-06T09:00:40.085Z,39.35
2023-05-06T09:03:08.483Z,39.68
2023-05-06T09:05:36.849Z,39.33
2023-05-06T09:08:05.866Z,39.12
2023-05-06T09:10:42.167Z,39.46
2023-05-06T09:13:13.315Z,39.03
2023-05-06T09:15:42.203Z,38.90
2023-05-06T09:18:11.593Z,38.66
2023-05-06T09:20:41.853Z,38.84
2023-05-06T09:23:10.409Z,39.32
2023-05-06T09:25:38.911Z,38.76
2023-05-06T09:28:08.549Z,37.91
2023-05-06T09:30:40.150Z,37.87
2023-05-06T09:33:08.879Z,37.49
2023-05-06T09:35:38.193Z,37.61
2023-05-06T09:38:07.374Z,37.28
2023-05-06T09:40:36.332Z,37.71
2023-05-06T09:43:05.104Z,37.61
2023-05-06T09:45:33.484Z,37.62
2023-05-06T09:48:03.489Z,38.01
2023-05-06T09:50:33.045Z,37.48
2023-05-06T09:53:03.023Z,37.06
2023-05-06T09:55:31.750Z,37.70
2023-05-06T09:58:01.045Z,37.27
2023-05-06T10:00:31.773Z,37.38
2023-05-06T10:03:01.274Z,37.41
2023-05-06T10:05:30.956Z,36.96
2023-05-06T10:08:00.159Z,37.54
2023-05-06T10:10:29.008Z,37.82
2023-05-06T10:12:57.659Z,38.03
2023-05-06T10:15:26.703Z,37.28
2023-05-06T10:17:55.986Z,37.44
2023-05-06T10:20:25.140Z,37.00
2023-05-06T10:23:01.284Z,36.93
2023-05-06T10:25:32.786Z,36.91
2023-05-06T10:28:01.450Z,36.36
2023-05-06T10:30:31.275Z,36.08
2023-05-06T10:33:04.467Z,35.61
2023-05-06T10:35:46.581Z,36.42
2023-05-06T10:38:18.248Z,36.30
2023-05-06T10:40:46.901Z,36.71
2023-05-06T10:43:23.948Z,36.56
2023-05-06T10:46:04.162Z,36.89
2023-05-06T10:48:33.086Z,37.40
2023-05-06T10:51:23.271Z,37.80
2023-05-06T10:53:59.535Z,38.50
2023-05-06T10:56:28.502Z,39.16
2023-05-06T10:58:57.083Z,39.45
2023-05-06T11:01:27.939Z,39.57
2023-05-06T11:03:56.617Z,41.01
2023-05-06T11:06:34.046Z,40.46
2023-05-06T11:09:03.636Z,40.41
2023-05-06T11:11:51.426Z,40.27
2023-05-06T11:14:27.330Z,39.86
2023-05-06T11:16:56.771Z,40.15
2023-05-06T11:19:26.853Z,39.68
2023-05-06T11:21:56.855Z,39.62
2023-05-06T11:24:26.863Z,39.62
2023-05-06T11:26:56.123Z,39.49
2023-05-06T11:29:24.921Z,39.54
2023-05-06T11:31:53.681Z,39.14
2023-05-06T11:34:24.290Z,38.56
2023-05-06T11:36:58.687Z,38.56
2023-05-06T11:39:29.695Z,38.79
2023-05-06T11:42:03.186Z,38.82
2023-05-06T11:44:33.634Z,39.15
2023-05-06T11:47:05.006Z,39.25
2023-05-06T11:49:37.780Z,39.28
2023-05-06T11:52:06.399Z,39.38
2023-05-06T11:54:36.146Z,40.07
2023-05-06T11:57:04.708Z,40.43
2023-05-06T11:59:34.711Z,40.79
2023-05-06T12:02:04.038Z,40.68
2023-05-06T12:04:40.524Z,40.46
2023-05-06T12:07:10.091Z,41.19
2023-05-06T12:09:39.251Z,41.86
2023-05-06T12:12:09.063Z,42.39
2023-05-06T12:14:37.563Z,42.61
2023-05-06T12:17:06.161Z,42.96
2023-05-06T12:19:34.632Z,42.95
2023-05-06T12:22:19.526Z,44.63
2023-05-06T12:24:49.312Z,44.82
2023-05-06T12:27:30.440Z,45.48
2023-05-06T12:29:59.854Z,46.81
2023-05-06T12:32:28.197Z,48.35
2023-05-06T12:34:57.709Z,49.45
2023-05-06T12:37:28.313Z,50.51
2023-05-06T12:39:59.164Z,50.53
2023-05-06T12:42:27.864Z,50.89
2023-05-06T12:44:56.293Z,51.73
2023-05-06T12:47:25.487Z,52.78
2023-05-06T12:49:55.193Z,53.43
2023-05-06T12:52:25.177Z,53.84
2023-05-06T12:54:53.506Z,54.33
2023-05-06T12:57:22.109Z,55.33
2023-05-06T12:59:50.713Z,56.25
2023-05-06T13:02:19.135Z,56.83
2023-05-06T13:04:47.603Z,57.13
2023-05-06T13:07:16.077Z,57.75
2023-05-06T13:09:44.521Z,58.79
2023-05-06T13:12:12.965Z,59.73
2023-05-06T13:14:40.545Z,59.87
2023-05-06T13:17:08.964Z,60.83
2023-05-06T13:19:37.528Z,61.39
2023-05-06T13:22:06.102Z,61.88
2023-05-06T13:24:34.499Z,61.85
2023-05-06T13:27:02.895Z,62.25
2023-05-06T13:29:31.280Z,63.19
2023-05-06T13:32:00.407Z,63.37
2023-05-06T13:34:28.908Z,63.57
2023-05-06T13:36:57.718Z,63.40
2023-05-06T13:39:26.265Z,63.37
2023-05-06T13:41:55.050Z,64.73
2023-05-06T13:44:24.222Z,64.79
2023-05-06T13:46:52.785Z,65.22
2023-05-06T13:49:21.312Z,65.54
2023-05-06T13:51:49.896Z,66.26
2023-05-06T13:54:18.596Z,66.78
2023-05-06T13:56:46.891Z,66.86
2023-05-06T13:59:14.430Z,67.41
2023-05-06T14:01:43.356Z,67.50
2023-05-06T14:04:11.983Z,67.89
2023-05-06T14:06:40.252Z,67.79
2023-05-06T14:09:08.720Z,67.97
2023-05-06T14:11:37.224Z,68.28
2023-05-06T14:14:06.293Z,68.56
2023-05-06T14:16:34.715Z,69.34
2023-05-06T14:19:04.085Z,68.88
2023-05-06T14:21:32.407Z,69.40
2023-05-06T14:24:00.421Z,69.15
2023-05-06T14:26:28.892Z,69.59
2023-05-06T14:28:56.342Z,69.24
2023-05-06T14:31:25.916Z,69.41
2023-05-06T14:33:54.320Z,69.34
2023-05-06T14:36:21.809Z,69.97
2023-05-06T14:38:50.220Z,69.99
2023-05-06T14:41:17.764Z,70.51
2023-05-06T14:43:46.036Z,70.94
2023-05-06T14:46:15.199Z,70.58
2023-05-06T14:48:44.678Z,71.15
2023-05-06T14:51:13.047Z,71.68
2023-05-06T14:53:40.594Z,71.31
2023-05-06T14:56:10.012Z,71.39
2023-05-06T14:58:38.998Z,71.15
2023-05-06T15:01:07.504Z,71.24
2023-05-06T15:03:35.951Z,71.07
2023-05-06T15:06:05.225Z,71.79
2023-05-06T15:08:34.575Z,71.98
2023-05-06T15:11:04.091Z,71.79
2023-05-06T15:13:32.997Z,72.13
2023-05-06T15:16:01.358Z,72.01
2023-05-06T15:18:28.821Z,72.61
2023-05-06T15:21:00.407Z,72.44
2023-05-06T15:23:28.846Z,72.86
2023-05-06T15:25:58.077Z,72.63
2023-05-06T15:28:26.650Z,72.70
2023-05-06T15:30:54.993Z,72.90
2023-05-06T15:33:22.484Z,73.00
2023-05-06T15:35:50.851Z,73.32
2023-05-06T15:38:18.371Z,73.33
2023-05-06T15:40:50.859Z,73.07
2023-05-06T15:43:23.755Z,73.65
2023-05-06T15:45:54.388Z,73.52
2023-05-06T15:48:23.085Z,74.00
2023-05-06T15:50:51.428Z,74.01
2023-05-06T15:53:19.289Z,73.93
2023-05-06T15:55:56.207Z,73.95
2023-05-06T15:58:26.217Z,74.12
2023-05-06T16:00:54.511Z,74.41
2023-05-06T16:03:22.184Z,74.20
2023-05-06T16:05:52.296Z,74.67
2023-05-06T16:08:20.594Z,74.50
2023-05-06T16:10:51.112Z,75.32
2023-05-06T16:13:19.840Z,75.34
2023-05-06T16:15:48.363Z,74.96
2023-05-06T16:18:18.101Z,75.17
2023-05-06T16:20:45.769Z,75.31
2023-05-06T16:23:14.437Z,75.41
2023-05-06T16:25:42.793Z,75.59
2023-05-06T16:28:10.492Z,75.33
2023-05-06T16:30:39.867Z,75.33
2023-05-06T16:33:08.268Z,75.39
2023-05-06T16:35:36.840Z,75.55
2023-05-06T16:38:05.272Z,75.40
2023-05-06T16:40:41.080Z,75.57
2023-05-06T16:43:09.743Z,75.54
2023-05-06T16:45:39.058Z,75.58
2023-05-06T16:48:07.715Z,75.42
2023-05-06T16:50:36.349Z,74.95
2023-05-06T16:53:04.873Z,75.53
2023-05-06T16:55:33.193Z,75.52
2023-05-06T16:58:01.544Z,75.32
2023-05-06T17:00:30.956Z,75.42
2023-05-06T17:02:59.452Z,75.72
2023-05-06T17:05:30.308Z,75.88
2023-05-06T17:07:58.815Z,75.97
2023-05-06T17:10:28.806Z,75.98
2023-05-06T17:12:57.348Z,75.94
2023-05-06T17:15:25.991Z,76.04
2023-05-06T17:17:54.373Z,76.34
2023-05-06T17:20:22.492Z,76.42
2023-05-06T17:22:50.840Z,76.74
2023-05-06T17:25:18.373Z,76.90
2023-05-06T17:27:46.787Z,77.39
2023-05-06T17:30:14.480Z,77.31
2023-05-06T17:32:42.868Z,77.27
2023-05-06T17:35:11.061Z,77.27
2023-05-06T17:37:40.261Z,77.10
2023-05-06T17:40:10.048Z,77.17
2023-05-06T17:42:38.406Z,77.33
2023-05-06T17:45:06.883Z,77.50
2023-05-06T17:47:35.309Z,77.53
2023-05-06T17:50:04.273Z,77.32
2023-05-06T17:52:32.565Z,77.71
2023-05-06T17:55:11.308Z,77.53
2023-05-06T17:57:44.356Z,78.04
2023-05-06T18:00:13.510Z,77.89
2023-05-06T18:02:44.045Z,78.10
2023-05-06T18:05:13.017Z,78.11
2023-05-06T18:07:41.634Z,78.10
2023-05-06T18:10:11.424Z,78.27
2023-05-06T18:12:40.101Z,78.35
2023-05-06T18:15:10.718Z,78.38
2023-05-06T18:17:39.361Z,78.93
2023-05-06T18:20:08.206Z,78.54
2023-05-06T18:22:36.534Z,78.65
2023-05-06T18:25:06.633Z,78.99
2023-05-06T18:27:35.501Z,78.72
2023-05-06T18:30:05.377Z,78.44
2023-05-06T18:32:34.671Z,78.60
2023-05-06T18:35:03.145Z,78.99
2023-05-06T18:37:30.677Z,78.48
2023-05-06T18:39:59.400Z,78.78
2023-05-06T18:42:28.216Z,78.65
2023-05-06T18:44:57.373Z,78.89
2023-05-06T18:47:25.979Z,79.01
2023-05-06T18:49:56.986Z,78.91
2023-05-06T18:52:25.517Z,79.40
2023-05-06T18:54:53.848Z,79.44
2023-05-06T18:57:22.902Z,79.22
2023-05-06T18:59:51.280Z,79.06
2023-05-06T19:02:18.826Z,79.28
2023-05-06T19:04:47.238Z,79.83
2023-05-06T19:07:16.302Z,79.50
2023-05-06T19:09:44.821Z,79.32
2023-05-06T19:12:14.436Z,79.63
2023-05-06T19:14:42.788Z,79.61
2023-05-06T19:17:11.478Z,79.50
2023-05-06T19:19:40.057Z,79.31
2023-05-06T19:22:07.478Z,79.05
2023-05-06T19:24:35.841Z,79.46
2023-05-06T19:27:04.280Z,79.35
2023-05-06T19:29:32.759Z,78.66
2023-05-06T19:32:01.628Z,79.46
2023-05-06T19:34:29.896Z,79.72
2023-05-06T19:36:58.298Z,79.60
2023-05-06T19:39:26.815Z,80.17
2023-05-06T19:41:55.009Z,79.95
2023-05-06T19:44:23.471Z,80.11
2023-05-06T19:46:53.802Z,79.93
2023-05-06T19:49:22.141Z,80.07
2023-05-06T19:51:50.405Z,79.82
2023-05-06T19:54:19.197Z,80.38
2023-05-06T19:56:48.684Z,80.49
2023-05-06T19:59:17.567Z,80.23
2023-05-06T20:01:46.059Z,80.04
2023-05-06T20:04:14.408Z,79.44
2023-05-06T20:06:42.720Z,79.57
2023-05-06T20:09:11.234Z,79.52
2023-05-06T20:11:39.614Z,79.86
2023-05-06T20:14:07.071Z,79.41
2023-05-06T20:16:35.455Z,79.14
2023-05-06T20:19:03.874Z,79.54
2023-05-06T20:21:32.249Z,79.77
2023-05-06T20:23:59.746Z,79.39
2023-05-06T20:26:28.705Z,79.21
2023-05-06T20:28:57.601Z,79.56
2023-05-06T20:31:26.062Z,79.28
2023-05-06T20:33:55.084Z,79.71
2023-05-06T20:36:22.472Z,79.54
2023-05-06T20:38:50.951Z,79.77
2023-05-06T20:41:19.228Z,79.91
2023-05-06T20:43:47.596Z,80.04
2023-05-06T20:46:17.823Z,79.69
2023-05-06T20:48:46.474Z,79.80
2023-05-06T20:51:15.428Z,79.56
2023-05-06T20:53:45.421Z,79.58
2023-05-06T20:56:18.148Z,79.74
2023-05-06T20:58:46.516Z,79.79
2023-05-06T21:01:14.545Z,79.71
2023-05-06T21:03:43.679Z,79.91
2023-05-06T21:06:12.690Z,80.02
2023-05-06T21:08:42.655Z,79.87
2023-05-06T21:11:11.489Z,79.62
2023-05-06T21:13:39.313Z,79.53
2023-05-06T21:16:07.808Z,79.52
2023-05-06T21:18:37.292Z,79.57
2023-05-06T21:21:05.667Z,79.57
2023-05-06T21:23:34.721Z,79.75
2023-05-06T21:26:03.186Z,79.67
2023-05-06T21:28:30.588Z,79.26
2023-05-06T21:30:58.909Z,79.29
2023-05-06T21:33:27.237Z,79.39
2023-05-06T21:35:55.562Z,79.30
2023-05-06T21:38:23.919Z,79.41
2023-05-06T21:40:52.210Z,79.05
2023-05-06T21:43:20.550Z,79.12
2023-05-06T21:45:48.923Z,79.11
2023-05-06T21:48:17.252Z,79.00
2023-05-06T21:50:45.784Z,79.36
2023-05-06T21:53:14.146Z,79.10
2023-05-06T21:55:42.597Z,79.14
2023-05-06T21:58:10.629Z,79.04
2023-05-06T22:00:39.034Z,79.14
2023-05-06T22:03:07.384Z,79.10
2023-05-06T22:05:35.030Z,79.15
2023-05-06T22:08:03.579Z,79.25
2023-05-06T22:10:31.172Z,79.16
2023-05-06T22:12:59.536Z,79.01
2023-05-06T22:15:27.064Z,79.23
2023-05-06T22:17:55.378Z,78.62
2023-05-06T22:20:24.434Z,78.53
2023-05-06T22:22:52.007Z,79.13
2023-05-06T22:25:20.665Z,79.11
2023-05-06T22:27:48.942Z,78.91
2023-05-06T22:30:17.415Z,78.88
2023-05-06T22:32:44.960Z,78.81
2023-05-06T22:35:13.696Z,79.29
2023-05-06T22:37:42.059Z,78.64
2023-05-06T22:40:10.754Z,79.10
2023-05-06T22:42:39.144Z,79.08
2023-05-06T22:45:08.360Z,79.16
2023-05-06T22:47:36.969Z,79.00
2023-05-06T22:50:07.463Z,78.95
2023-05-06T22:52:36.092Z,78.80
2023-05-06T22:55:05.935Z,79.26
2023-05-06T22:57:35.154Z,79.19
2023-05-06T23:00:06.276Z,78.93
2023-05-06T23:02:34.981Z,78.86
2023-05-06T23:05:03.905Z,78.81
2023-05-06T23:07:32.325Z,78.74
2023-05-06T23:10:02.095Z,78.62
2023-05-06T23:12:33.396Z,78.49
2023-05-06T23:15:03.287Z,78.38
2023-05-06T23:17:31.726Z,78.61
2023-05-06T23:19:59.199Z,78.37
2023-05-06T23:22:27.831Z,78.64
2023-05-06T23:24:56.338Z,78.68
2023-05-06T23:27:24.631Z,78.73
2023-05-06T23:29:52.321Z,78.70
2023-05-06T23:32:20.897Z,78.58
2023-05-06T23:34:48.887Z,78.61
2023-05-06T23:37:17.225Z,78.68
2023-05-06T23:39:46.909Z,78.48
2023-05-06T23:42:15.312Z,78.69
2023-05-06T23:44:42.783Z,78.82
2023-05-06T23:47:11.048Z,78.67
2023-05-06T23:49:39.227Z,78.75
2023-05-06T23:52:07.622Z,78.91
2023-05-06T23:54:35.931Z,78.86
2023-05-06T23:57:04.494Z,79.00
2023-05-06T23:59:33.078Z,78.60
